createdAt,value
2023-03-11T00:01:29.151Z,80.81
2023-03-11T00:03:56.901Z,80.86
2023-03-11T00:06:25.945Z,82.73
2023-03-11T00:08:53.968Z,83.68
2023-03-11T00:11:22.467Z,82.64
2023-03-11T00:13:50.130Z,82.78
2023-03-11T00:16:17.828Z,82.42
2023-03-11T00:18:45.537Z,83.35
2023-03-11T00:21:17.146Z,82.78
2023-03-11T00:23:46.411Z,82.16
2023-03-11T00:26:14.503Z,83.31
2023-03-11T00:28:42.332Z,82.71
2023-03-11T00:31:11.771Z,83.47
2023-03-11T00:33:40.102Z,83.53
2023-03-11T00:36:08.542Z,82.29
2023-03-11T00:38:36.313Z,82.48
2023-03-11T00:41:05.669Z,82.78
2023-03-11T00:43:33.384Z,82.23
2023-03-11T00:46:01.203Z,82.83
2023-03-11T00:48:29.161Z,83.55
2023-03-11T00:50:56.857Z,84.62
2023-03-11T00:53:24.518Z,84.83
2023-03-11T00:55:52.463Z,85.64
2023-03-11T00:58:22.736Z,85.63
2023-03-11T01:00:51.736Z,86.45
2023-03-11T01:03:19.432Z,86.91
2023-03-11T01:05:47.098Z,87.42
2023-03-11T01:08:14.788Z,89.05
2023-03-11T01:10:42.591Z,89.21
2023-03-11T01:13:10.370Z,88.57
2023-03-11T01:15:39.568Z,89.00
2023-03-11T01:18:07.758Z,89.33
2023-03-11T01:20:36.464Z,90.59
2023-03-11T01:23:04.501Z,91.15
2023-03-11T01:25:32.209Z,92.53
2023-03-11T01:27:59.954Z,92.66
2023-03-11T01:30:28.576Z,93.95
2023-03-11T01:32:58.750Z,95.18
2023-03-11T01:35:28.803Z,95.21
2023-03-11T01:37:56.929Z,94.93
2023-03-11T01:40:28.056Z,95.65
2023-03-11T01:42:55.936Z,95.48
2023-03-11T01:45:42.096Z,95.71
2023-03-11T01:48:12.153Z,97.08
2023-03-11T01:50:44.042Z,98.54
2023-03-11T01:53:14.346Z,100.00
2023-03-11T01:55:42.273Z,100.00
2023-03-11T01:58:15.739Z,100.00
2023-03-11T02:00:44.315Z,100.00
2023-03-11T02:03:19.997Z,100.00
2023-03-11T02:05:49.264Z,100.00
2023-03-11T02:08:17.029Z,100.00
2023-03-11T02:10:45.395Z,100.00
2023-03-11T02:13:13.402Z,100.00
2023-03-11T02:15:41.321Z,100.00
2023-03-11T02:18:14.623Z,100.00
2023-03-11T02:20:50.383Z,100.00
2023-03-11T02:23:21.009Z,100.00
2023-03-11T02:25:54.309Z,100.00
2023-03-11T02:28:24.917Z,100.00
2023-03-11T02:30:53.656Z,100.00
2023-03-11T02:33:21.475Z,100.00
2023-03-11T02:35:49.270Z,100.00
2023-03-11T02:38:17.097Z,100.00
2023-03-11T02:40:52.898Z,100.00
2023-03-11T02:43:27.740Z,100.00
2023-03-11T02:45:57.104Z,100.00
2023-03-11T02:48:25.337Z,100.00
2023-03-11T02:50:53.351Z,100.00
2023-03-11T02:53:21.172Z,100.00
2023-03-11T02:55:48.992Z,100.00
2023-03-11T02:58:16.677Z,100.00
2023-03-11T03:00:45.978Z,100.00
2023-03-11T03:03:13.697Z,100.00
2023-03-11T03:05:42.699Z,100.00
2023-03-11T03:08:10.471Z,100.00
2023-03-11T03:10:38.356Z,100.00
2023-03-11T03:13:06.173Z,100.00
2023-03-11T03:15:33.890Z,100.00
2023-03-11T03:18:03.000Z,100.00
2023-03-11T03:20:30.729Z,100.00
2023-03-11T03:22:58.568Z,100.00
2023-03-11T03:25:26.287Z,100.00
2023-03-11T03:27:54.067Z,100.00
2023-03-11T03:30:22.096Z,100.00
2023-03-11T03:32:49.933Z,100.00
2023-03-11T03:35:19.329Z,100.00
2023-03-11T03:37:47.063Z,100.00
2023-03-11T03:40:15.390Z,100.00
2023-03-11T03:42:43.194Z,100.00
2023-03-11T03:45:12.054Z,100.00
2023-03-11T03:47:40.015Z,100.00
2023-03-11T03:50:10.592Z,100.00
2023-03-11T03:52:40.039Z,100.00
2023-03-11T03:55:08.390Z,100.00
2023-03-11T03:57:36.099Z,100.00
2023-03-11T04:00:05.342Z,100.00
2023-03-11T04:02:33.121Z,100.00
2023-03-11T04:05:00.903Z,100.00
2023-03-11T04:07:28.651Z,100.00
2023-03-11T04:09:57.731Z,100.00
2023-03-11T04:12:25.769Z,100.00
2023-03-11T04:14:53.651Z,100.00
2023-03-11T04:17:21.406Z,100.00
2023-03-11T04:19:50.295Z,100.00
2023-03-11T04:22:18.013Z,100.00
2023-03-11T04:24:45.708Z,100.00
2023-03-11T04:27:14.765Z,100.00
2023-03-11T04:29:42.568Z,100.00
2023-03-11T04:32:10.501Z,100.00
2023-03-11T04:34:38.429Z,100.00
2023-03-11T04:37:06.296Z,100.00
2023-03-11T04:39:34.916Z,100.00
2023-03-11T04:42:04.081Z,100.00
2023-03-11T04:44:35.489Z,100.00
2023-03-11T04:47:03.241Z,100.00
2023-03-11T04:49:30.933Z,100.00
2023-03-11T04:51:58.694Z,100.00
2023-03-11T04:54:26.323Z,100.00
2023-03-11T04:56:54.035Z,100.00
2023-03-11T04:59:21.664Z,100.00
2023-03-11T05:01:50.818Z,100.00
2023-03-11T05:04:18.631Z,100.00
2023-03-11T05:06:46.401Z,100.00
2023-03-11T05:09:14.146Z,100.00
2023-03-11T05:11:41.897Z,100.00
2023-03-11T05:14:09.646Z,100.00
2023-03-11T05:16:37.300Z,100.00
2023-03-11T05:19:26.827Z,100.00
2023-03-11T05:21:54.587Z,100.00
2023-03-11T05:24:22.426Z,100.00
2023-03-11T05:26:50.381Z,100.00
2023-03-11T05:29:18.252Z,100.00
2023-03-11T05:31:46.942Z,100.00
2023-03-11T05:34:16.456Z,100.00
2023-03-11T05:36:44.239Z,100.00
2023-03-11T05:39:12.000Z,100.00
2023-03-11T05:41:39.887Z,100.00
2023-03-11T05:44:07.776Z,100.00
2023-03-11T05:46:35.628Z,100.00
2023-03-11T05:49:03.580Z,100.00
2023-03-11T05:51:32.776Z,100.00
2023-03-11T05:54:01.424Z,100.00
2023-03-11T05:56:29.166Z,100.00
2023-03-11T05:58:59.168Z,100.00
2023-03-11T06:01:26.892Z,100.00
2023-03-11T06:03:54.881Z,100.00
2023-03-11T06:06:23.870Z,100.00
2023-03-11T06:08:53.409Z,100.00
2023-03-11T06:11:21.335Z,100.00
2023-03-11T06:13:49.111Z,100.00
2023-03-11T06:16:16.884Z,100.00
2023-03-11T06:18:44.722Z,100.00
2023-03-11T06:21:18.163Z,100.00
2023-03-11T06:23:45.928Z,100.00
2023-03-11T06:26:16.738Z,100.00
2023-03-11T06:28:45.371Z,100.00
2023-03-11T06:31:15.868Z,100.00
2023-03-11T06:33:43.701Z,100.00
2023-03-11T06:36:14.007Z,100.00
2023-03-11T06:38:43.142Z,100.00
2023-03-11T06:41:11.471Z,100.00
2023-03-11T06:43:40.837Z,100.00
2023-03-11T06:46:12.869Z,100.00
2023-03-11T06:48:40.774Z,100.00
2023-03-11T06:51:08.661Z,100.00
2023-03-11T06:53:36.521Z,100.00
2023-03-11T06:56:07.080Z,100.00
2023-03-11T06:58:36.384Z,100.00
2023-03-11T07:01:07.970Z,100.00
2023-03-11T07:03:36.041Z,100.00
2023-03-11T07:06:06.257Z,100.00
2023-03-11T07:08:34.554Z,100.00
2023-03-11T07:11:04.932Z,100.00
2023-03-11T07:13:32.922Z,100.00
2023-03-11T07:16:02.262Z,100.00
2023-03-11T07:18:32.010Z,100.00
2023-03-11T07:21:00.165Z,100.00
2023-03-11T07:23:27.939Z,100.00
2023-03-11T07:25:55.683Z,100.00
2023-03-11T07:28:23.538Z,100.00
2023-03-11T07:30:51.790Z,100.00
2023-03-11T07:33:19.826Z,100.00
2023-03-11T07:35:49.449Z,98.19
2023-03-11T07:38:18.085Z,98.50
2023-03-11T07:40:45.906Z,97.13
2023-03-11T07:43:13.770Z,96.08
2023-03-11T07:45:41.576Z,96.71
2023-03-11T07:48:09.500Z,100.00
2023-03-11T07:50:37.197Z,100.00
2023-03-11T07:53:06.415Z,100.00
2023-03-11T07:55:35.081Z,100.00
2023-03-11T07:58:02.986Z,100.00
2023-03-11T08:00:30.778Z,100.00
2023-03-11T08:02:58.478Z,100.00
2023-03-11T08:05:26.253Z,100.00
2023-03-11T08:07:54.069Z,100.00
2023-03-11T08:10:23.311Z,100.00
2023-03-11T08:12:52.237Z,99.27
2023-03-11T08:15:19.954Z,97.04
2023-03-11T08:17:47.719Z,97.53
2023-03-11T08:20:15.601Z,95.95
2023-03-11T08:22:55.561Z,97.05
2023-03-11T08:25:26.299Z,97.02
2023-03-11T08:27:54.025Z,96.77
2023-03-11T08:30:22.093Z,94.81
2023-03-11T08:32:50.416Z,94.83
2023-03-11T08:35:19.002Z,95.33
2023-03-11T08:37:46.914Z,90.75
2023-03-11T08:40:15.013Z,85.81
2023-03-11T08:42:44.390Z,84.07
2023-03-11T08:45:13.127Z,84.51
2023-03-11T08:47:41.326Z,82.09
2023-03-11T08:50:15.463Z,77.26
2023-03-11T08:52:43.366Z,75.61
2023-03-11T08:55:14.382Z,69.85
2023-03-11T08:57:42.374Z,61.46
2023-03-11T09:00:13.901Z,58.31
2023-03-11T09:02:43.347Z,56.70
2023-03-11T09:05:11.537Z,57.32
2023-03-11T09:07:39.328Z,58.54
2023-03-11T09:10:07.916Z,57.41
2023-03-11T09:12:35.624Z,57.69
2023-03-11T09:15:03.332Z,57.56
2023-03-11T09:17:32.404Z,56.32
2023-03-11T09:20:00.167Z,57.08
2023-03-11T09:22:27.997Z,57.90
2023-03-11T09:24:55.696Z,54.43
2023-03-11T09:27:23.306Z,52.34
2023-03-11T09:29:51.001Z,52.91
2023-03-11T09:32:18.640Z,56.11
2023-03-11T09:34:47.672Z,58.96
2023-03-11T09:37:15.332Z,63.62
2023-03-11T09:39:43.050Z,67.21
2023-03-11T09:42:20.604Z,69.70
2023-03-11T09:44:58.640Z,73.93
2023-03-11T09:47:37.959Z,71.56
2023-03-11T09:50:32.404Z,71.21
2023-03-11T09:53:10.724Z,70.35
2023-03-11T09:55:45.817Z,68.69
2023-03-11T09:58:18.919Z,65.79
2023-03-11T10:00:47.334Z,63.10
2023-03-11T10:03:31.816Z,67.05
2023-03-11T10:06:20.992Z,78.80
2023-03-11T10:08:55.939Z,93.60
2023-03-11T10:11:50.366Z,100.00
2023-03-11T10:14:43.052Z,100.00
2023-03-11T10:17:19.496Z,100.00
2023-03-11T10:19:52.503Z,100.00
2023-03-11T10:22:28.909Z,100.00
2023-03-11T10:25:05.317Z,100.00
2023-03-11T10:27:41.531Z,100.00
2023-03-11T10:30:20.311Z,100.00
2023-03-11T10:32:52.715Z,100.00
2023-03-11T10:35:23.623Z,97.16
2023-03-11T10:37:58.069Z,88.48
2023-03-11T10:40:31.222Z,76.85
2023-03-11T10:43:03.969Z,74.01
2023-03-11T10:45:41.578Z,76.21
2023-03-11T10:48:12.397Z,74.16
2023-03-11T10:50:47.454Z,70.48
2023-03-11T10:53:19.181Z,73.20
2023-03-11T10:55:49.091Z,73.83
2023-03-11T10:58:19.873Z,72.72
2023-03-11T11:00:48.184Z,74.04
2023-03-11T11:03:25.012Z,73.89
2023-03-11T11:06:00.148Z,68.58
2023-03-11T11:08:29.714Z,65.30
2023-03-11T11:10:59.536Z,61.94
2023-03-11T11:13:30.185Z,56.54
2023-03-11T11:16:03.130Z,53.48
2023-03-11T11:18:34.508Z,52.16
2023-03-11T11:21:05.690Z,53.29
2023-03-11T11:23:40.319Z,53.48
2023-03-11T11:26:17.482Z,55.38
2023-03-11T11:28:45.301Z,57.13
2023-03-11T11:31:25.947Z,56.51
2023-03-11T11:33:56.279Z,56.12
2023-03-11T11:36:30.011Z,57.66
2023-03-11T11:39:02.854Z,58.29
2023-03-11T11:41:33.372Z,58.28
2023-03-11T11:44:04.203Z,57.36
2023-03-11T11:46:38.232Z,57.82
2023-03-11T11:49:16.878Z,58.41
2023-03-11T11:51:50.508Z,57.92
2023-03-11T11:54:26.852Z,59.01
2023-03-11T11:56:56.608Z,60.05
2023-03-11T11:59:25.556Z,59.44
2023-03-11T12:02:03.796Z,59.88
2023-03-11T12:04:47.804Z,57.27
2023-03-11T12:07:30.616Z,54.50
2023-03-11T12:10:22.338Z,51.66
2023-03-11T12:13:13.321Z,52.39
2023-03-11T12:15:46.839Z,54.74
2023-03-11T12:18:24.961Z,55.87
2023-03-11T12:20:56.072Z,56.84
2023-03-11T12:23:43.854Z,56.74
2023-03-11T12:26:20.362Z,57.78
2023-03-11T12:28:54.373Z,58.58
2023-03-11T12:31:25.582Z,59.96
2023-03-11T12:33:59.347Z,60.69
2023-03-11T12:36:32.034Z,61.76
2023-03-11T12:39:03.474Z,62.74
2023-03-11T12:41:36.973Z,64.68
2023-03-11T12:44:26.980Z,64.95
2023-03-11T12:47:25.336Z,65.16
2023-03-11T12:49:55.336Z,64.51
2023-03-11T12:52:28.458Z,64.56
2023-03-11T12:55:36.217Z,63.51
2023-03-11T12:58:40.987Z,64.05
2023-03-11T13:01:40.935Z,61.96
2023-03-11T13:04:32.681Z,63.19
2023-03-11T13:07:33.756Z,62.56
2023-03-11T13:10:07.805Z,62.30
2023-03-11T13:12:41.757Z,61.90
2023-03-11T13:15:35.708Z,61.78
2023-03-11T13:18:14.497Z,62.34
2023-03-11T13:20:51.715Z,63.52
2023-03-11T13:23:33.481Z,64.01
2023-03-11T13:26:16.559Z,64.48
2023-03-11T13:28:59.947Z,64.82
2023-03-11T13:31:43.315Z,63.15
2023-03-11T13:34:17.285Z,65.31
2023-03-11T13:36:58.936Z,64.53
2023-03-11T13:39:41.103Z,63.60
2023-03-11T13:42:27.525Z,64.02
2023-03-11T13:44:55.837Z,62.36
2023-03-11T13:47:26.078Z,61.99
2023-03-11T13:49:56.413Z,61.83
2023-03-11T13:52:28.334Z,60.00
2023-03-11T13:55:03.618Z,59.66
2023-03-11T13:57:33.066Z,57.76
2023-03-11T14:00:16.282Z,57.85
2023-03-11T14:02:48.602Z,57.88
2023-03-11T14:05:20.321Z,57.48
2023-03-11T14:07:48.383Z,56.09
2023-03-11T14:10:19.723Z,56.69
2023-03-11T14:12:48.570Z,56.45
2023-03-11T14:15:22.398Z,57.88
2023-03-11T14:17:52.832Z,57.90
2023-03-11T14:20:25.397Z,57.33
2023-03-11T14:22:56.115Z,58.65
2023-03-11T14:25:27.214Z,59.38
2023-03-11T14:27:58.131Z,59.70
2023-03-11T14:30:29.178Z,59.91
2023-03-11T14:33:01.527Z,59.70
2023-03-11T14:35:30.166Z,59.13
2023-03-11T14:37:59.827Z,59.87
2023-03-11T14:40:30.584Z,57.95
2023-03-11T14:43:02.095Z,58.03
2023-03-11T14:45:33.292Z,57.45
2023-03-11T14:48:08.203Z,56.89
2023-03-11T14:50:36.583Z,56.97
2023-03-11T14:53:10.017Z,56.69
2023-03-11T14:55:41.072Z,57.50
2023-03-11T14:58:16.355Z,57.95
2023-03-11T15:00:50.038Z,56.33
2023-03-11T15:03:24.301Z,56.71
2023-03-11T15:05:54.985Z,56.61
2023-03-11T15:08:24.481Z,56.96
2023-03-11T15:11:18.363Z,57.22
2023-03-11T15:13:50.575Z,59.67
2023-03-11T15:16:31.911Z,60.60
2023-03-11T15:19:03.480Z,61.74
2023-03-11T15:21:31.532Z,61.87
2023-03-11T15:24:04.984Z,61.38
2023-03-11T15:26:34.981Z,62.42
2023-03-11T15:29:07.017Z,62.09
2023-03-11T15:31:37.776Z,61.83
2023-03-11T15:34:25.466Z,61.88
2023-03-11T15:37:02.698Z,62.43
2023-03-11T15:39:44.957Z,62.26
2023-03-11T15:42:24.709Z,62.51
2023-03-11T15:45:17.092Z,62.80
2023-03-11T15:47:45.905Z,63.34
2023-03-11T15:50:25.157Z,63.72
2023-03-11T15:52:54.929Z,63.89
2023-03-11T15:55:23.301Z,64.37
2023-03-11T15:57:54.942Z,63.18
2023-03-11T16:00:24.213Z,63.12
2023-03-11T16:02:52.174Z,63.20
2023-03-11T16:05:26.018Z,61.87
2023-03-11T16:07:53.690Z,62.21
2023-03-11T16:10:24.621Z,62.41
2023-03-11T16:12:52.514Z,61.71
2023-03-11T16:15:24.826Z,61.68
2023-03-11T16:17:53.119Z,61.84
2023-03-11T16:20:24.446Z,60.16
2023-03-11T16:22:54.818Z,60.73
2023-03-11T16:25:26.693Z,60.90
2023-03-11T16:27:55.758Z,60.81
2023-03-11T16:30:24.619Z,61.32
2023-03-11T16:32:52.401Z,61.38
2023-03-11T16:35:20.365Z,61.93
2023-03-11T16:37:49.582Z,63.62
2023-03-11T16:40:19.731Z,63.64
2023-03-11T16:42:48.195Z,63.69
2023-03-11T16:45:18.174Z,63.54
2023-03-11T16:47:45.848Z,63.20
2023-03-11T16:50:13.538Z,63.64
2023-03-11T16:52:41.354Z,64.02
2023-03-11T16:55:11.198Z,64.39
2023-03-11T16:57:39.445Z,64.44
2023-03-11T17:00:09.787Z,65.49
2023-03-11T17:02:37.898Z,66.07
2023-03-11T17:05:08.054Z,66.24
2023-03-11T17:07:38.850Z,67.30
2023-03-11T17:10:08.693Z,68.22
2023-03-11T17:12:38.209Z,66.34
2023-03-11T17:15:08.488Z,67.06
2023-03-11T17:17:36.611Z,67.01
2023-03-11T17:20:06.275Z,66.38
2023-03-11T17:22:33.882Z,66.71
2023-03-11T17:25:02.211Z,68.05
2023-03-11T17:27:32.477Z,69.01
2023-03-11T17:30:02.484Z,68.02
2023-03-11T17:32:30.586Z,67.62
2023-03-11T17:34:58.992Z,67.39
2023-03-11T17:37:26.763Z,68.14
2023-03-11T17:39:54.883Z,68.90
2023-03-11T17:42:22.752Z,70.07
2023-03-11T17:44:52.252Z,68.54
2023-03-11T17:47:26.019Z,69.42
2023-03-11T17:49:55.474Z,70.01
2023-03-11T17:52:23.243Z,69.46
2023-03-11T17:54:52.080Z,69.80
2023-03-11T17:57:19.828Z,70.12
2023-03-11T17:59:50.861Z,70.24
2023-03-11T18:02:18.849Z,70.71
2023-03-11T18:04:53.822Z,69.48
2023-03-11T18:07:23.612Z,69.10
2023-03-11T18:09:52.678Z,69.05
2023-03-11T18:12:21.024Z,70.33
2023-03-11T18:14:49.175Z,71.23
2023-03-11T18:17:18.514Z,69.66
2023-03-11T18:19:46.417Z,69.83
2023-03-11T18:22:16.258Z,69.26
2023-03-11T18:24:45.408Z,69.21
2023-03-11T18:27:13.137Z,69.19
2023-03-11T18:29:41.003Z,67.62
2023-03-11T18:32:08.819Z,68.73
2023-03-11T18:34:38.210Z,67.38
2023-03-11T18:37:06.030Z,68.48
2023-03-11T18:39:35.603Z,67.64
2023-03-11T18:42:07.102Z,69.30
2023-03-11T18:44:36.850Z,68.87
2023-03-11T18:47:04.806Z,69.60
2023-03-11T18:49:32.626Z,69.93
2023-03-11T18:52:00.405Z,69.30
2023-03-11T18:54:29.188Z,69.70
2023-03-11T18:56:58.480Z,71.99
2023-03-11T18:59:27.708Z,71.41
2023-03-11T19:01:56.002Z,72.84
2023-03-11T19:04:24.049Z,73.13
2023-03-11T19:06:52.144Z,74.32
2023-03-11T19:09:20.335Z,74.71
2023-03-11T19:11:48.051Z,74.59
2023-03-11T19:14:17.268Z,76.56
2023-03-11T19:16:44.973Z,76.80
2023-03-11T19:19:13.062Z,79.11
2023-03-11T19:21:40.989Z,80.10
2023-03-11T19:24:09.104Z,80.81
2023-03-11T19:26:46.609Z,80.58
2023-03-11T19:29:15.277Z,81.74
2023-03-11T19:31:45.704Z,81.92
2023-03-11T19:34:13.543Z,82.70
2023-03-11T19:36:41.387Z,83.52
2023-03-11T19:39:09.547Z,84.74
2023-03-11T19:41:37.279Z,85.33
2023-03-11T19:44:05.220Z,86.00
2023-03-11T19:46:34.994Z,86.71
2023-03-11T19:49:05.358Z,86.69
2023-03-11T19:51:48.593Z,87.22
2023-03-11T19:54:17.252Z,88.09
2023-03-11T19:56:45.374Z,88.95
2023-03-11T19:59:14.680Z,90.41
2023-03-11T20:01:43.213Z,89.97
2023-03-11T20:04:15.585Z,91.57
2023-03-11T20:06:44.449Z,92.33
2023-03-11T20:09:13.219Z,92.68
2023-03-11T20:11:41.494Z,93.05
2023-03-11T20:14:11.015Z,93.00
2023-03-11T20:16:40.162Z,95.08
2023-03-11T20:19:08.639Z,95.17
2023-03-11T20:21:40.813Z,95.14
2023-03-11T20:24:09.911Z,95.42
2023-03-11T20:26:38.936Z,95.41
2023-03-11T20:29:07.450Z,95.51
2023-03-11T20:31:36.443Z,95.79
2023-03-11T20:34:04.920Z,97.10
2023-03-11T20:36:34.692Z,98.08
2023-03-11T20:39:09.466Z,98.85
2023-03-11T20:41:41.304Z,98.21
2023-03-11T20:44:12.354Z,96.49
2023-03-11T20:46:42.411Z,97.36
2023-03-11T20:49:10.406Z,99.11
2023-03-11T20:51:41.437Z,98.77
2023-03-11T20:54:12.049Z,98.34
2023-03-11T20:56:41.728Z,98.55
2023-03-11T20:59:19.413Z,98.05
2023-03-11T21:01:49.700Z,98.87
2023-03-11T21:04:17.930Z,98.93
2023-03-11T21:06:45.813Z,99.40
2023-03-11T21:09:15.903Z,99.32
2023-03-11T21:11:45.153Z,99.23
2023-03-11T21:14:16.341Z,98.90
2023-03-11T21:16:45.474Z,99.67
2023-03-11T21:19:14.054Z,99.63
2023-03-11T21:21:43.226Z,100.00
2023-03-11T21:24:12.480Z,100.00
2023-03-11T21:26:42.459Z,100.00
2023-03-11T21:29:26.222Z,100.00
2023-03-11T21:31:54.436Z,100.00
2023-03-11T21:34:22.428Z,100.00
2023-03-11T21:36:50.322Z,100.00
2023-03-11T21:39:22.057Z,100.00
2023-03-11T21:41:53.334Z,100.00
2023-03-11T21:44:24.400Z,100.00
2023-03-11T21:46:52.842Z,100.00
2023-03-11T21:49:21.363Z,100.00
2023-03-11T21:51:50.683Z,100.00
2023-03-11T21:54:18.781Z,100.00
2023-03-11T21:56:46.621Z,100.00
2023-03-11T21:59:16.105Z,100.00
2023-03-11T22:01:43.886Z,100.00
2023-03-11T22:04:11.950Z,100.00
2023-03-11T22:06:39.840Z,100.00
2023-03-11T22:09:08.540Z,100.00
2023-03-11T22:11:36.349Z,100.00
2023-03-11T22:14:04.435Z,100.00
2023-03-11T22:16:35.791Z,100.00
2023-03-11T22:19:05.456Z,100.00
2023-03-11T22:21:33.623Z,100.00
2023-03-11T22:24:01.811Z,100.00
2023-03-11T22:26:29.654Z,100.00
2023-03-11T22:28:57.705Z,100.00
2023-03-11T22:31:25.873Z,100.00
2023-03-11T22:33:55.238Z,100.00
2023-03-11T22:36:22.939Z,100.00
2023-03-11T22:38:52.314Z,100.00
2023-03-11T22:41:20.374Z,100.00
2023-03-11T22:43:48.316Z,100.00
2023-03-11T22:46:16.060Z,100.00
2023-03-11T22:48:43.793Z,100.00
2023-03-11T22:51:15.415Z,100.00
2023-03-11T22:53:43.111Z,100.00
2023-03-11T22:56:13.076Z,100.00
2023-03-11T22:58:41.270Z,100.00
2023-03-11T23:01:09.417Z,100.00
2023-03-11T23:03:37.274Z,100.00
2023-03-11T23:06:07.856Z,100.00
2023-03-11T23:08:37.492Z,100.00
2023-03-11T23:11:07.683Z,100.00
2023-03-11T23:13:36.122Z,100.00
2023-03-11T23:16:05.814Z,100.00
2023-03-11T23:18:33.581Z,100.00
2023-03-11T23:21:01.267Z,100.00
2023-03-11T23:23:29.212Z,100.00
2023-03-11T23:25:58.230Z,100.00
2023-03-11T23:28:25.950Z,100.00
2023-03-11T23:30:53.757Z,100.00
2023-03-11T23:33:21.487Z,100.00
2023-03-11T23:35:49.131Z,100.00
2023-03-11T23:38:16.868Z,100.00
2023-03-11T23:40:44.597Z,100.00
2023-03-11T23:43:13.630Z,100.00
2023-03-11T23:45:41.629Z,100.00
2023-03-11T23:48:09.407Z,100.00
2023-03-11T23:50:37.153Z,100.00
2023-03-11T23:53:04.976Z,100.00
2023-03-11T23:55:32.686Z,100.00
2023-03-11T23:58:00.341Z,100.00
